sensor_id;sensor_type;location;lat;lon;timestamp;P1;durP1;ratioP1;P2;durP2;ratioP2
14778;SDS011;7481;53.750;10.570;2024-01-30T00:03:55;9.67;;;5.60;;
14778;SDS011;7481;53.750;10.570;2024-01-30T00:08:24;9.40;;;6.30;;
14778;SDS011;7481;53.750;10.570;2024-01-30T00:12:55;11.00;;;6.43;;
14778;SDS011;7481;53.750;10.570;2024-01-30T00:17:21;11.63;;;6.30;;
14778;SDS011;7481;53.750;10.570;2024-01-30T00:21:52;11.47;;;6.60;;
14778;SDS011;7481;53.750;10.570;2024-01-30T00:26:21;10.50;;;6.37;;
14778;SDS011;7481;53.750;10.570;2024-01-30T00:30:51;9.77;;;6.57;;
14778;SDS011;7481;53.750;10.570;2024-01-30T00:35:18;7.57;;;5.53;;
14778;SDS011;7481;53.750;10.570;2024-01-30T00:39:45;10.03;;;5.93;;
14778;SDS011;7481;53.750;10.570;2024-01-30T00:44:11;11.20;;;6.40;;
14778;SDS011;7481;53.750;10.570;2024-01-30T00:48:44;8.50;;;6.07;;
14778;SDS011;7481;53.750;10.570;2024-01-30T00:53:13;8.33;;;5.50;;
14778;SDS011;7481;53.750;10.570;2024-01-30T00:57:41;9.00;;;6.20;;
14778;SDS011;7481;53.750;10.570;2024-01-30T01:02:07;10.10;;;5.97;;
14778;SDS011;7481;53.750;10.570;2024-01-30T01:06:32;7.93;;;6.17;;
14778;SDS011;7481;53.750;10.570;2024-01-30T01:10:55;10.70;;;6.47;;
14778;SDS011;7481;53.750;10.570;2024-01-30T01:15:28;8.57;;;5.83;;
14778;SDS011;7481;53.750;10.570;2024-01-30T01:19:57;8.40;;;5.93;;
14778;SDS011;7481;53.750;10.570;2024-01-30T01:24:26;8.90;;;5.80;;
14778;SDS011;7481;53.750;10.570;2024-01-30T01:28:53;10.13;;;6.17;;
14778;SDS011;7481;53.750;10.570;2024-01-30T01:33:21;9.30;;;6.37;;
14778;SDS011;7481;53.750;10.570;2024-01-30T01:42:45;10.17;;;6.20;;
14778;SDS011;7481;53.750;10.570;2024-01-30T01:47:14;8.23;;;5.50;;
14778;SDS011;7481;53.750;10.570;2024-01-30T01:51:44;8.60;;;5.97;;
14778;SDS011;7481;53.750;10.570;2024-01-30T01:56:16;9.03;;;5.60;;
14778;SDS011;7481;53.750;10.570;2024-01-30T02:00:49;10.50;;;6.30;;
14778;SDS011;7481;53.750;10.570;2024-01-30T02:05:31;10.77;;;6.40;;
14778;SDS011;7481;53.750;10.570;2024-01-30T02:10:02;7.40;;;5.67;;
14778;SDS011;7481;53.750;10.570;2024-01-30T02:14:30;9.80;;;5.70;;
14778;SDS011;7481;53.750;10.570;2024-01-30T02:18:58;8.83;;;5.57;;
14778;SDS011;7481;53.750;10.570;2024-01-30T02:23:29;8.43;;;5.80;;
14778;SDS011;7481;53.750;10.570;2024-01-30T02:28:07;8.07;;;6.10;;
14778;SDS011;7481;53.750;10.570;2024-01-30T02:32:37;9.07;;;6.57;;
14778;SDS011;7481;53.750;10.570;2024-01-30T02:37:04;9.47;;;7.13;;
14778;SDS011;7481;53.750;10.570;2024-01-30T02:41:29;8.70;;;6.60;;
14778;SDS011;7481;53.750;10.570;2024-01-30T02:50:44;8.60;;;6.17;;
14778;SDS011;7481;53.750;10.570;2024-01-30T02:55:13;10.17;;;6.70;;
14778;SDS011;7481;53.750;10.570;2024-01-30T03:00:17;10.87;;;6.70;;
14778;SDS011;7481;53.750;10.570;2024-01-30T03:04:45;9.30;;;6.37;;
14778;SDS011;7481;53.750;10.570;2024-01-30T03:09:12;10.40;;;6.80;;
14778;SDS011;7481;53.750;10.570;2024-01-30T03:13:40;11.00;;;6.83;;
14778;SDS011;7481;53.750;10.570;2024-01-30T03:18:13;11.27;;;7.00;;
14778;SDS011;7481;53.750;10.570;2024-01-30T03:22:42;9.97;;;6.80;;
14778;SDS011;7481;53.750;10.570;2024-01-30T03:27:11;9.93;;;6.47;;
14778;SDS011;7481;53.750;10.570;2024-01-30T03:31:33;8.57;;;6.30;;
14778;SDS011;7481;53.750;10.570;2024-01-30T03:36:04;10.57;;;7.17;;
14778;SDS011;7481;53.750;10.570;2024-01-30T03:40:30;9.63;;;6.67;;
14778;SDS011;7481;53.750;10.570;2024-01-30T03:44:59;10.90;;;7.03;;
14778;SDS011;7481;53.750;10.570;2024-01-30T03:49:27;9.07;;;6.70;;
14778;SDS011;7481;53.750;10.570;2024-01-30T03:53:53;11.10;;;6.70;;
14778;SDS011;7481;53.750;10.570;2024-01-30T03:58:20;11.00;;;7.17;;
14778;SDS011;7481;53.750;10.570;2024-01-30T04:02:50;9.67;;;6.97;;
14778;SDS011;7481;53.750;10.570;2024-01-30T04:07:20;9.93;;;7.10;;
14778;SDS011;7481;53.750;10.570;2024-01-30T04:11:45;8.30;;;6.33;;
14778;SDS011;7481;53.750;10.570;2024-01-30T04:16:34;10.90;;;7.00;;
14778;SDS011;7481;53.750;10.570;2024-01-30T04:21:01;10.63;;;7.30;;
14778;SDS011;7481;53.750;10.570;2024-01-30T04:25:33;9.93;;;7.13;;
14778;SDS011;7481;53.750;10.570;2024-01-30T04:30:05;11.50;;;6.90;;
14778;SDS011;7481;53.750;10.570;2024-01-30T04:34:32;9.73;;;6.93;;
14778;SDS011;7481;53.750;10.570;2024-01-30T04:39:02;12.23;;;7.40;;
14778;SDS011;7481;53.750;10.570;2024-01-30T04:43:37;9.27;;;6.73;;
14778;SDS011;7481;53.750;10.570;2024-01-30T04:48:07;10.20;;;7.17;;
14778;SDS011;7481;53.750;10.570;2024-01-30T04:52:35;11.30;;;7.37;;
14778;SDS011;7481;53.750;10.570;2024-01-30T04:57:01;16.63;;;7.83;;
14778;SDS011;7481;53.750;10.570;2024-01-30T05:01:29;11.13;;;7.63;;
14778;SDS011;7481;53.750;10.570;2024-01-30T05:05:57;14.70;;;10.70;;
14778;SDS011;7481;53.750;10.570;2024-01-30T05:10:29;14.37;;;8.57;;
14778;SDS011;7481;53.750;10.570;2024-01-30T05:14:58;15.27;;;8.63;;
14778;SDS011;7481;53.750;10.570;2024-01-30T05:19:28;11.83;;;8.00;;
14778;SDS011;7481;53.750;10.570;2024-01-30T05:24:04;12.13;;;7.70;;
14778;SDS011;7481;53.750;10.570;2024-01-30T05:28:34;10.90;;;7.73;;
14778;SDS011;7481;53.750;10.570;2024-01-30T05:33:11;12.73;;;8.53;;
14778;SDS011;7481;53.750;10.570;2024-01-30T05:37:41;10.87;;;7.80;;
14778;SDS011;7481;53.750;10.570;2024-01-30T05:42:07;12.53;;;7.93;;
14778;SDS011;7481;53.750;10.570;2024-01-30T05:46:33;10.27;;;7.90;;
14778;SDS011;7481;53.750;10.570;2024-01-30T05:51:03;13.47;;;8.73;;
14778;SDS011;7481;53.750;10.570;2024-01-30T05:55:35;11.80;;;8.33;;
14778;SDS011;7481;53.750;10.570;2024-01-30T06:00:01;12.70;;;7.70;;
14778;SDS011;7481;53.750;10.570;2024-01-30T06:04:30;13.40;;;8.30;;
14778;SDS011;7481;53.750;10.570;2024-01-30T06:09:03;14.00;;;8.80;;
14778;SDS011;7481;53.750;10.570;2024-01-30T06:13:32;10.77;;;7.97;;
14778;SDS011;7481;53.750;10.570;2024-01-30T06:18:04;11.53;;;7.63;;
14778;SDS011;7481;53.750;10.570;2024-01-30T06:22:27;11.13;;;8.10;;
14778;SDS011;7481;53.750;10.570;2024-01-30T06:26:55;13.33;;;8.80;;
14778;SDS011;7481;53.750;10.570;2024-01-30T06:31:32;13.30;;;8.33;;
14778;SDS011;7481;53.750;10.570;2024-01-30T06:35:59;15.63;;;9.53;;
14778;SDS011;7481;53.750;10.570;2024-01-30T06:40:32;15.30;;;9.37;;
14778;SDS011;7481;53.750;10.570;2024-01-30T06:45:01;13.73;;;9.00;;
14778;SDS011;7481;53.750;10.570;2024-01-30T06:49:35;15.80;;;10.33;;
14778;SDS011;7481;53.750;10.570;2024-01-30T06:54:04;12.87;;;9.43;;
14778;SDS011;7481;53.750;10.570;2024-01-30T06:58:34;14.37;;;10.00;;
14778;SDS011;7481;53.750;10.570;2024-01-30T07:03:03;14.07;;;9.27;;
14778;SDS011;7481;53.750;10.570;2024-01-30T07:07:33;13.73;;;10.40;;
14778;SDS011;7481;53.750;10.570;2024-01-30T07:12:23;15.57;;;9.77;;
14778;SDS011;7481;53.750;10.570;2024-01-30T07:16:50;15.27;;;10.40;;
14778;SDS011;7481;53.750;10.570;2024-01-30T07:21:15;16.33;;;10.17;;
14778;SDS011;7481;53.750;10.570;2024-01-30T07:25:51;13.23;;;9.97;;
14778;SDS011;7481;53.750;10.570;2024-01-30T07:30:15;13.47;;;9.80;;
14778;SDS011;7481;53.750;10.570;2024-01-30T07:34:43;12.07;;;8.90;;
14778;SDS011;7481;53.750;10.570;2024-01-30T07:39:23;15.90;;;9.90;;
14778;SDS011;7481;53.750;10.570;2024-01-30T07:43:48;13.30;;;9.10;;
14778;SDS011;7481;53.750;10.570;2024-01-30T07:48:12;14.67;;;10.27;;
14778;SDS011;7481;53.750;10.570;2024-01-30T07:52:37;13.67;;;9.03;;
14778;SDS011;7481;53.750;10.570;2024-01-30T07:57:03;13.53;;;10.47;;
14778;SDS011;7481;53.750;10.570;2024-01-30T08:01:28;14.50;;;10.03;;
14778;SDS011;7481;53.750;10.570;2024-01-30T08:05:52;16.77;;;10.83;;
14778;SDS011;7481;53.750;10.570;2024-01-30T08:10:17;15.67;;;10.40;;
14778;SDS011;7481;53.750;10.570;2024-01-30T08:14:42;16.17;;;10.90;;
14778;SDS011;7481;53.750;10.570;2024-01-30T08:19:11;22.03;;;11.77;;
14778;SDS011;7481;53.750;10.570;2024-01-30T08:23:38;15.87;;;11.43;;
14778;SDS011;7481;53.750;10.570;2024-01-30T08:28:01;17.40;;;11.43;;
14778;SDS011;7481;53.750;10.570;2024-01-30T08:32:27;18.50;;;11.57;;
14778;SDS011;7481;53.750;10.570;2024-01-30T08:36:59;24.40;;;14.23;;
14778;SDS011;7481;53.750;10.570;2024-01-30T08:41:25;19.70;;;12.33;;
14778;SDS011;7481;53.750;10.570;2024-01-30T08:50:33;19.73;;;12.10;;
14778;SDS011;7481;53.750;10.570;2024-01-30T08:54:58;18.43;;;12.53;;
14778;SDS011;7481;53.750;10.570;2024-01-30T08:59:22;19.10;;;12.27;;
14778;SDS011;7481;53.750;10.570;2024-01-30T09:03:45;21.00;;;12.67;;
14778;SDS011;7481;53.750;10.570;2024-01-30T09:08:10;21.00;;;13.77;;
14778;SDS011;7481;53.750;10.570;2024-01-30T09:12:38;21.40;;;13.90;;
14778;SDS011;7481;53.750;10.570;2024-01-30T09:17:02;15.83;;;11.90;;
14778;SDS011;7481;53.750;10.570;2024-01-30T09:21:26;16.70;;;11.83;;
14778;SDS011;7481;53.750;10.570;2024-01-30T09:25:50;18.03;;;12.07;;
14778;SDS011;7481;53.750;10.570;2024-01-30T09:30:15;17.77;;;10.93;;
14778;SDS011;7481;53.750;10.570;2024-01-30T09:34:43;15.77;;;11.07;;
14778;SDS011;7481;53.750;10.570;2024-01-30T09:39:08;18.03;;;11.60;;
14778;SDS011;7481;53.750;10.570;2024-01-30T09:43:32;15.60;;;11.10;;
14778;SDS011;7481;53.750;10.570;2024-01-30T09:48:00;14.97;;;10.73;;
14778;SDS011;7481;53.750;10.570;2024-01-30T09:52:25;16.23;;;11.10;;
14778;SDS011;7481;53.750;10.570;2024-01-30T09:56:49;14.13;;;10.90;;
14778;SDS011;7481;53.750;10.570;2024-01-30T10:01:18;13.53;;;10.40;;
14778;SDS011;7481;53.750;10.570;2024-01-30T10:05:43;14.10;;;10.27;;
14778;SDS011;7481;53.750;10.570;2024-01-30T10:10:10;13.93;;;10.23;;
14778;SDS011;7481;53.750;10.570;2024-01-30T10:14:38;17.37;;;11.07;;
14778;SDS011;7481;53.750;10.570;2024-01-30T10:19:03;18.87;;;10.77;;
14778;SDS011;7481;53.750;10.570;2024-01-30T10:23:26;15.70;;;10.37;;
14778;SDS011;7481;53.750;10.570;2024-01-30T10:28:12;17.43;;;11.30;;
14778;SDS011;7481;53.750;10.570;2024-01-30T10:32:40;15.07;;;10.27;;
14778;SDS011;7481;53.750;10.570;2024-01-30T10:37:09;16.20;;;11.10;;
14778;SDS011;7481;53.750;10.570;2024-01-30T10:41:43;15.10;;;10.30;;
14778;SDS011;7481;53.750;10.570;2024-01-30T10:46:11;14.90;;;9.77;;
14778;SDS011;7481;53.750;10.570;2024-01-30T10:50:40;13.37;;;9.60;;
14778;SDS011;7481;53.750;10.570;2024-01-30T10:55:15;13.27;;;9.50;;
14778;SDS011;7481;53.750;10.570;2024-01-30T10:59:40;16.80;;;10.73;;
14778;SDS011;7481;53.750;10.570;2024-01-30T11:04:06;14.53;;;10.33;;
14778;SDS011;7481;53.750;10.570;2024-01-30T11:08:33;15.77;;;10.60;;
14778;SDS011;7481;53.750;10.570;2024-01-30T11:12:57;22.07;;;13.20;;
14778;SDS011;7481;53.750;10.570;2024-01-30T11:17:27;36.57;;;22.60;;
14778;SDS011;7481;53.750;10.570;2024-01-30T11:21:53;16.97;;;10.73;;
14778;SDS011;7481;53.750;10.570;2024-01-30T11:26:17;18.40;;;10.80;;
14778;SDS011;7481;53.750;10.570;2024-01-30T11:30:47;14.67;;;10.37;;
14778;SDS011;7481;53.750;10.570;2024-01-30T11:35:16;14.03;;;10.10;;
14778;SDS011;7481;53.750;10.570;2024-01-30T11:39:46;13.10;;;9.80;;
14778;SDS011;7481;53.750;10.570;2024-01-30T11:44:10;13.47;;;9.70;;
14778;SDS011;7481;53.750;10.570;2024-01-30T11:48:35;12.63;;;10.07;;
14778;SDS011;7481;53.750;10.570;2024-01-30T11:53:13;16.70;;;10.70;;
14778;SDS011;7481;53.750;10.570;2024-01-30T11:57:37;14.90;;;10.30;;
14778;SDS011;7481;53.750;10.570;2024-01-30T12:02:05;12.80;;;10.03;;
14778;SDS011;7481;53.750;10.570;2024-01-30T12:06:31;14.90;;;11.00;;
14778;SDS011;7481;53.750;10.570;2024-01-30T12:10:58;13.97;;;10.07;;
14778;SDS011;7481;53.750;10.570;2024-01-30T12:15:24;13.57;;;9.67;;
14778;SDS011;7481;53.750;10.570;2024-01-30T12:19:48;13.83;;;10.03;;
14778;SDS011;7481;53.750;10.570;2024-01-30T12:24:18;14.97;;;11.03;;
14778;SDS011;7481;53.750;10.570;2024-01-30T12:28:49;13.20;;;9.47;;
14778;SDS011;7481;53.750;10.570;2024-01-30T12:33:18;13.87;;;10.33;;
14778;SDS011;7481;53.750;10.570;2024-01-30T12:37:45;15.67;;;10.00;;
14778;SDS011;7481;53.750;10.570;2024-01-30T12:42:09;14.50;;;9.90;;
14778;SDS011;7481;53.750;10.570;2024-01-30T12:46:36;12.73;;;9.80;;
14778;SDS011;7481;53.750;10.570;2024-01-30T12:51:13;14.27;;;9.23;;
14778;SDS011;7481;53.750;10.570;2024-01-30T12:55:47;13.17;;;10.10;;
14778;SDS011;7481;53.750;10.570;2024-01-30T13:00:15;16.03;;;10.60;;
14778;SDS011;7481;53.750;10.570;2024-01-30T13:04:39;17.43;;;10.10;;
14778;SDS011;7481;53.750;10.570;2024-01-30T13:09:12;13.60;;;9.57;;
14778;SDS011;7481;53.750;10.570;2024-01-30T13:13:36;14.43;;;9.47;;
14778;SDS011;7481;53.750;10.570;2024-01-30T13:18:08;11.80;;;9.40;;
14778;SDS011;7481;53.750;10.570;2024-01-30T13:22:32;12.67;;;9.77;;
14778;SDS011;7481;53.750;10.570;2024-01-30T13:26:58;13.00;;;9.23;;
14778;SDS011;7481;53.750;10.570;2024-01-30T13:31:25;14.53;;;9.63;;
14778;SDS011;7481;53.750;10.570;2024-01-30T13:35:51;17.17;;;9.03;;
14778;SDS011;7481;53.750;10.570;2024-01-30T13:40:15;14.97;;;10.00;;
14778;SDS011;7481;53.750;10.570;2024-01-30T13:44:40;13.60;;;9.13;;
14778;SDS011;7481;53.750;10.570;2024-01-30T13:49:07;14.33;;;9.50;;
14778;SDS011;7481;53.750;10.570;2024-01-30T13:53:36;15.23;;;9.40;;
14778;SDS011;7481;53.750;10.570;2024-01-30T13:58:07;14.13;;;9.40;;
14778;SDS011;7481;53.750;10.570;2024-01-30T14:02:36;14.70;;;9.23;;
14778;SDS011;7481;53.750;10.570;2024-01-30T14:07:03;14.10;;;8.83;;
14778;SDS011;7481;53.750;10.570;2024-01-30T14:11:29;12.87;;;8.77;;
14778;SDS011;7481;53.750;10.570;2024-01-30T14:16:01;11.37;;;8.43;;
14778;SDS011;7481;53.750;10.570;2024-01-30T14:20:25;14.83;;;9.17;;
14778;SDS011;7481;53.750;10.570;2024-01-30T14:24:51;14.10;;;9.73;;
14778;SDS011;7481;53.750;10.570;2024-01-30T14:29:17;15.17;;;9.73;;
14778;SDS011;7481;53.750;10.570;2024-01-30T14:33:41;17.30;;;9.73;;
14778;SDS011;7481;53.750;10.570;2024-01-30T14:38:11;16.20;;;9.10;;
14778;SDS011;7481;53.750;10.570;2024-01-30T14:42:36;14.27;;;9.97;;
14778;SDS011;7481;53.750;10.570;2024-01-30T14:47:02;19.17;;;12.17;;
14778;SDS011;7481;53.750;10.570;2024-01-30T14:51:28;19.33;;;11.37;;
14778;SDS011;7481;53.750;10.570;2024-01-30T14:55:56;17.07;;;11.10;;
14778;SDS011;7481;53.750;10.570;2024-01-30T15:00:18;15.83;;;11.23;;
14778;SDS011;7481;53.750;10.570;2024-01-30T15:04:48;20.27;;;12.20;;
14778;SDS011;7481;53.750;10.570;2024-01-30T15:09:13;17.60;;;10.47;;
14778;SDS011;7481;53.750;10.570;2024-01-30T15:13:39;20.53;;;10.37;;
14778;SDS011;7481;53.750;10.570;2024-01-30T15:18:03;19.97;;;11.60;;
14778;SDS011;7481;53.750;10.570;2024-01-30T15:22:29;16.27;;;10.10;;
14778;SDS011;7481;53.750;10.570;2024-01-30T15:26:51;16.90;;;10.33;;
14778;SDS011;7481;53.750;10.570;2024-01-30T15:31:16;16.57;;;11.17;;
14778;SDS011;7481;53.750;10.570;2024-01-30T15:35:38;18.47;;;11.30;;
14778;SDS011;7481;53.750;10.570;2024-01-30T15:40:04;17.93;;;10.27;;
14778;SDS011;7481;53.750;10.570;2024-01-30T15:44:29;23.33;;;11.90;;
14778;SDS011;7481;53.750;10.570;2024-01-30T15:48:55;14.60;;;10.07;;
14778;SDS011;7481;53.750;10.570;2024-01-30T15:53:21;25.93;;;14.57;;
14778;SDS011;7481;53.750;10.570;2024-01-30T15:57:45;19.87;;;10.83;;
14778;SDS011;7481;53.750;10.570;2024-01-30T16:02:14;25.07;;;15.40;;
14778;SDS011;7481;53.750;10.570;2024-01-30T16:06:44;24.37;;;15.53;;
14778;SDS011;7481;53.750;10.570;2024-01-30T16:11:10;12.93;;;9.80;;
14778;SDS011;7481;53.750;10.570;2024-01-30T16:15:39;16.07;;;10.00;;
14778;SDS011;7481;53.750;10.570;2024-01-30T16:20:08;21.37;;;13.40;;
14778;SDS011;7481;53.750;10.570;2024-01-30T16:24:37;20.30;;;11.93;;
14778;SDS011;7481;53.750;10.570;2024-01-30T16:29:23;14.60;;;10.43;;
14778;SDS011;7481;53.750;10.570;2024-01-30T16:33:58;17.53;;;10.63;;
14778;SDS011;7481;53.750;10.570;2024-01-30T16:38:26;15.17;;;10.77;;
14778;SDS011;7481;53.750;10.570;2024-01-30T16:42:56;13.43;;;9.30;;
14778;SDS011;7481;53.750;10.570;2024-01-30T16:47:22;15.53;;;9.67;;
14778;SDS011;7481;53.750;10.570;2024-01-30T16:51:48;14.80;;;10.30;;
14778;SDS011;7481;53.750;10.570;2024-01-30T16:56:26;14.77;;;9.83;;
14778;SDS011;7481;53.750;10.570;2024-01-30T17:01:01;13.70;;;9.83;;
14778;SDS011;7481;53.750;10.570;2024-01-30T17:05:36;14.57;;;11.33;;
14778;SDS011;7481;53.750;10.570;2024-01-30T17:10:22;17.10;;;13.30;;
14778;SDS011;7481;53.750;10.570;2024-01-30T17:14:56;17.83;;;11.97;;
14778;SDS011;7481;53.750;10.570;2024-01-30T17:19:24;20.57;;;11.37;;
14778;SDS011;7481;53.750;10.570;2024-01-30T17:23:51;23.40;;;16.30;;
14778;SDS011;7481;53.750;10.570;2024-01-30T17:28:20;21.10;;;12.57;;
14778;SDS011;7481;53.750;10.570;2024-01-30T17:32:51;19.07;;;12.20;;
14778;SDS011;7481;53.750;10.570;2024-01-30T17:37:25;22.77;;;14.13;;
14778;SDS011;7481;53.750;10.570;2024-01-30T17:41:52;18.03;;;11.57;;
14778;SDS011;7481;53.750;10.570;2024-01-30T17:46:16;19.30;;;12.57;;
14778;SDS011;7481;53.750;10.570;2024-01-30T17:50:43;20.73;;;12.03;;
14778;SDS011;7481;53.750;10.570;2024-01-30T17:55:16;16.77;;;12.17;;
14778;SDS011;7481;53.750;10.570;2024-01-30T17:59:50;17.17;;;12.97;;
14778;SDS011;7481;53.750;10.570;2024-01-30T18:04:18;20.70;;;13.17;;
14778;SDS011;7481;53.750;10.570;2024-01-30T18:08:52;19.03;;;13.77;;
14778;SDS011;7481;53.750;10.570;2024-01-30T18:13:26;20.60;;;11.57;;
14778;SDS011;7481;53.750;10.570;2024-01-30T18:17:53;18.67;;;10.57;;
14778;SDS011;7481;53.750;10.570;2024-01-30T18:22:18;16.97;;;10.13;;
14778;SDS011;7481;53.750;10.570;2024-01-30T18:26:55;18.57;;;12.07;;
14778;SDS011;7481;53.750;10.570;2024-01-30T18:31:25;13.97;;;10.53;;
14778;SDS011;7481;53.750;10.570;2024-01-30T18:36:00;14.30;;;10.17;;
14778;SDS011;7481;53.750;10.570;2024-01-30T18:40:30;13.00;;;9.87;;
14778;SDS011;7481;53.750;10.570;2024-01-30T18:45:02;16.73;;;10.10;;
14778;SDS011;7481;53.750;10.570;2024-01-30T18:49:37;12.10;;;9.27;;
14778;SDS011;7481;53.750;10.570;2024-01-30T18:54:09;14.47;;;8.77;;
14778;SDS011;7481;53.750;10.570;2024-01-30T19:04:25;10.23;;;7.13;;
14778;SDS011;7481;53.750;10.570;2024-01-30T19:08:53;10.23;;;6.87;;
14778;SDS011;7481;53.750;10.570;2024-01-30T19:13:26;8.47;;;6.90;;
14778;SDS011;7481;53.750;10.570;2024-01-30T19:17:55;9.20;;;5.73;;
14778;SDS011;7481;53.750;10.570;2024-01-30T19:22:31;8.97;;;5.93;;
14778;SDS011;7481;53.750;10.570;2024-01-30T19:26:54;6.40;;;5.03;;
14778;SDS011;7481;53.750;10.570;2024-01-30T19:31:24;5.80;;;4.47;;
14778;SDS011;7481;53.750;10.570;2024-01-30T19:35:57;5.80;;;4.70;;
14778;SDS011;7481;53.750;10.570;2024-01-30T19:40:55;7.47;;;4.50;;
14778;SDS011;7481;53.750;10.570;2024-01-30T19:45:20;8.30;;;5.17;;
14778;SDS011;7481;53.750;10.570;2024-01-30T19:49:47;9.33;;;5.60;;
14778;SDS011;7481;53.750;10.570;2024-01-30T19:54:15;9.73;;;5.90;;
14778;SDS011;7481;53.750;10.570;2024-01-30T19:58:44;8.00;;;6.03;;
14778;SDS011;7481;53.750;10.570;2024-01-30T20:03:12;9.13;;;6.67;;
14778;SDS011;7481;53.750;10.570;2024-01-30T20:07:39;9.97;;;6.03;;
14778;SDS011;7481;53.750;10.570;2024-01-30T20:12:02;9.97;;;6.70;;
14778;SDS011;7481;53.750;10.570;2024-01-30T20:16:36;11.13;;;6.30;;
14778;SDS011;7481;53.750;10.570;2024-01-30T20:21:07;9.23;;;6.13;;
14778;SDS011;7481;53.750;10.570;2024-01-30T20:25:36;6.33;;;4.97;;
14778;SDS011;7481;53.750;10.570;2024-01-30T20:30:05;5.47;;;4.73;;
14778;SDS011;7481;53.750;10.570;2024-01-30T20:34:35;5.57;;;4.67;;
14778;SDS011;7481;53.750;10.570;2024-01-30T20:39:08;6.00;;;3.97;;
14778;SDS011;7481;53.750;10.570;2024-01-30T20:43:50;5.83;;;4.73;;
14778;SDS011;7481;53.750;10.570;2024-01-30T20:48:20;5.10;;;3.77;;
14778;SDS011;7481;53.750;10.570;2024-01-30T20:52:42;6.63;;;4.30;;
14778;SDS011;7481;53.750;10.570;2024-01-30T20:57:13;5.23;;;3.97;;
14778;SDS011;7481;53.750;10.570;2024-01-30T21:01:44;5.43;;;3.77;;
14778;SDS011;7481;53.750;10.570;2024-01-30T21:06:20;6.43;;;4.60;;
14778;SDS011;7481;53.750;10.570;2024-01-30T21:10:53;8.17;;;5.20;;
14778;SDS011;7481;53.750;10.570;2024-01-30T21:15:24;6.93;;;5.30;;
14778;SDS011;7481;53.750;10.570;2024-01-30T21:19:57;7.03;;;4.60;;
14778;SDS011;7481;53.750;10.570;2024-01-30T21:24:23;7.20;;;4.97;;
14778;SDS011;7481;53.750;10.570;2024-01-30T21:28:56;6.63;;;4.97;;
14778;SDS011;7481;53.750;10.570;2024-01-30T21:33:23;5.10;;;4.60;;
14778;SDS011;7481;53.750;10.570;2024-01-30T21:38:36;6.87;;;5.23;;
14778;SDS011;7481;53.750;10.570;2024-01-30T21:42:59;5.70;;;4.73;;
14778;SDS011;7481;53.750;10.570;2024-01-30T21:47:25;7.60;;;5.30;;
14778;SDS011;7481;53.750;10.570;2024-01-30T21:51:54;7.13;;;4.97;;
14778;SDS011;7481;53.750;10.570;2024-01-30T21:56:34;7.27;;;4.50;;
14778;SDS011;7481;53.750;10.570;2024-01-30T22:01:07;4.07;;;3.67;;
14778;SDS011;7481;53.750;10.570;2024-01-30T22:05:35;3.87;;;3.33;;
14778;SDS011;7481;53.750;10.570;2024-01-30T22:10:14;3.83;;;3.20;;
14778;SDS011;7481;53.750;10.570;2024-01-30T22:14:45;3.97;;;3.20;;
14778;SDS011;7481;53.750;10.570;2024-01-30T22:19:13;4.33;;;2.73;;
14778;SDS011;7481;53.750;10.570;2024-01-30T22:24:01;2.97;;;2.57;;
14778;SDS011;7481;53.750;10.570;2024-01-30T22:28:29;3.50;;;2.93;;
14778;SDS011;7481;53.750;10.570;2024-01-30T22:32:53;3.27;;;2.97;;
14778;SDS011;7481;53.750;10.570;2024-01-30T22:37:25;3.40;;;2.90;;
14778;SDS011;7481;53.750;10.570;2024-01-30T22:42:00;4.47;;;2.57;;
14778;SDS011;7481;53.750;10.570;2024-01-30T22:46:41;3.53;;;2.63;;
14778;SDS011;7481;53.750;10.570;2024-01-30T22:51:09;4.53;;;2.27;;
14778;SDS011;7481;53.750;10.570;2024-01-30T22:55:51;2.93;;;1.90;;
14778;SDS011;7481;53.750;10.570;2024-01-30T23:00:18;4.07;;;1.80;;
14778;SDS011;7481;53.750;10.570;2024-01-30T23:04:54;1.63;;;1.50;;
14778;SDS011;7481;53.750;10.570;2024-01-30T23:09:22;1.70;;;1.40;;
14778;SDS011;7481;53.750;10.570;2024-01-30T23:13:48;1.67;;;1.40;;
14778;SDS011;7481;53.750;10.570;2024-01-30T23:18:12;2.10;;;1.70;;
14778;SDS011;7481;53.750;10.570;2024-01-30T23:22:43;2.70;;;1.67;;
14778;SDS011;7481;53.750;10.570;2024-01-30T23:27:12;3.63;;;2.10;;
14778;SDS011;7481;53.750;10.570;2024-01-30T23:32:14;5.77;;;1.80;;
14778;SDS011;7481;53.750;10.570;2024-01-30T23:36:52;2.43;;;1.70;;
14778;SDS011;7481;53.750;10.570;2024-01-30T23:41:39;2.67;;;1.60;;
14778;SDS011;7481;53.750;10.570;2024-01-30T23:46:08;1.97;;;1.70;;
14778;SDS011;7481;53.750;10.570;2024-01-30T23:50:38;2.17;;;1.63;;
14778;SDS011;7481;53.750;10.570;2024-01-30T23:55:18;3.63;;;2.33;;
14778;SDS011;7481;53.750;10.570;2024-01-30T23:59:47;4.00;;;1.97;;
